Time;durP1;ratioP1;P1;durP2;ratioP2;P2;SDS_P1;SDS_P2;PMS_P1;PMS_P2;Temp;Humidity;BMP_temperature;BMP_pressure;BME280_temperature;BME280_humidity;BME280_pressure;Samples;Min_cycle;Max_cycle;Signal;HPM_P1;HPM_P2
2024/03/08 05:16:54;;;;;;;;;60.60;48.00;;;;;;;;4616486;36;20002841;-51
2024/03/08 05:23:00;;;;;;;;;60.75;49.75;;;;;;;;6494047;39;8835;-49
2024/03/08 05:29:03;;;;;;;;;63.50;51.00;;;;;;;;6494275;39;8856;-50
2024/03/08 05:35:05;;;;;;;;;59.00;42.75;;;;;;;;6491632;46;8948;-52
2024/03/08 05:41:07;;;;;;;;;68.00;52.00;;;;;;;;6493301;39;9513;-53
2024/03/08 05:47:10;;;;;;;;;58.50;44.75;;;;;;;;6494764;39;9002;-51
2024/03/08 05:53:13;;;;;;;;;56.00;46.75;;;;;;;;6493304;39;9528;-51
2024/03/08 05:59:15;;;;;;;;;55.75;44.75;;;;;;;;6492868;46;8841;-52
2024/03/08 06:05:18;;;;;;;;;55.50;46.25;;;;;;;;6491996;39;8988;-53
2024/03/08 06:11:20;;;;;;;;;56.25;48.25;;;;;;;;6492421;39;8959;-55
2024/03/08 06:17:25;;;;;;;;;58.75;48.50;;;;;;;;6490293;46;8947;-53
2024/03/08 06:23:28;;;;;;;;;59.75;50.75;;;;;;;;6491982;39;8851;-56
2024/03/08 06:29:30;;;;;;;;;61.75;50.50;;;;;;;;6492704;39;9026;-53
2024/03/08 06:35:37;;;;;;;;;56.50;47.00;;;;;;;;6491296;31;8906;-51
2024/03/08 06:41:44;;;;;;;;;37.00;33.00;;;;;;;;5577095;36;10009977;-52
2024/03/08 06:47:47;;;;;;;;;44.50;37.75;;;;;;;;4164082;39;10002055;-53
2024/03/08 06:53:50;;;;;;;;;60.00;48.00;;;;;;;;6488639;39;10621;-54
2024/03/08 06:59:52;;;;;;;;;54.50;45.50;;;;;;;;6491683;39;8951;-54
2024/03/08 07:05:58;;;;;;;;;56.25;48.25;;;;;;;;6490467;39;9522;-53
2024/03/08 07:12:01;;;;;;;;;63.00;50.50;;;;;;;;6490595;39;8978;-53
2024/03/08 07:18:04;;;;;;;;;57.00;46.75;;;;;;;;6490161;39;8939;-53
2024/03/08 07:24:39;;;;;;;;;60.75;47.75;;;;;;;;6490070;39;8939;-51
2024/03/08 07:30:53;;;;;;;;;54.00;46.25;;;;;;;;6492325;31;8871;-52
2024/03/08 07:36:56;;;;;;;;;63.00;50.75;;;;;;;;6487961;46;8946;-52
2024/03/08 07:42:58;;;;;;;;;71.50;50.50;;;;;;;;6491769;39;9050;-55
2024/03/08 07:49:00;;;;;;;;;57.25;46.00;;;;;;;;6490334;39;8939;-54
2024/03/08 07:55:05;;;;;;;;;57.00;45.75;;;;;;;;6491079;39;8864;-53
2024/03/08 08:01:08;;;;;;;;;48.75;42.75;;;;;;;;6490954;46;8928;-54
2024/03/08 08:07:11;;;;;;;;;63.00;49.75;;;;;;;;6490987;39;8975;-52
2024/03/08 08:13:13;;;;;;;;;55.25;46.25;;;;;;;;6491857;39;8920;-54
2024/03/08 08:19:15;;;;;;;;;56.00;46.75;;;;;;;;6490438;39;8887;-54
2024/03/08 08:25:20;;;;;;;;;62.75;48.00;;;;;;;;6490844;39;8909;-54
2024/03/08 08:31:22;;;;;;;;;62.75;50.75;;;;;;;;6491168;39;8935;-55
2024/03/08 08:37:24;;;;;;;;;52.25;42.50;;;;;;;;6489560;46;8877;-55
2024/03/08 08:43:27;;;;;;;;;59.50;47.75;;;;;;;;6490698;39;8930;-52
2024/03/08 08:49:30;;;;;;;;;59.00;47.00;;;;;;;;6490891;39;8983;-54
2024/03/08 08:55:35;;;;;;;;;65.00;52.00;;;;;;;;6490110;31;8906;-54
2024/03/08 09:01:39;;;;;;;;;54.25;45.50;;;;;;;;6490825;31;9205;-56
2024/03/08 09:07:42;;;;;;;;;62.25;49.50;;;;;;;;6489371;39;8920;-54
2024/03/08 09:13:50;;;;;;;;;57.00;46.50;;;;;;;;5137998;36;10008954;-52
2024/03/08 09:19:55;;;;;;;;;79.25;61.00;;;;;;;;4469807;46;10002046;-53
2024/03/08 09:25:57;;;;;;;;;56.50;44.00;;;;;;;;6488881;31;8976;-54
2024/03/08 09:32:00;;;;;;;;;65.00;49.75;;;;;;;;6489293;46;8840;-51
2024/03/08 09:38:04;;;;;;;;;56.25;46.00;;;;;;;;6490519;46;8900;-52
2024/03/08 09:44:06;;;;;;;;;57.50;43.75;;;;;;;;6489080;39;8913;-56
2024/03/08 09:50:09;;;;;;;;;55.75;46.25;;;;;;;;6489891;46;8916;-52
2024/03/08 09:56:12;;;;;;;;;52.50;44.00;;;;;;;;6489913;46;8903;-54
2024/03/08 10:02:15;;;;;;;;;53.00;43.00;;;;;;;;6490147;46;9031;-57
2024/03/08 10:08:20;;;;;;;;;50.25;42.75;;;;;;;;6490364;31;8877;-53
2024/03/08 10:14:22;;;;;;;;;61.25;47.25;;;;;;;;6491016;31;8992;-56
2024/03/08 10:20:26;;;;;;;;;59.25;43.25;;;;;;;;6488355;39;8905;-54
2024/03/08 10:26:28;;;;;;;;;48.00;42.00;;;;;;;;6488078;39;8967;-55
2024/03/08 10:32:30;;;;;;;;;58.75;48.50;;;;;;;;6488218;39;8920;-53
2024/03/08 10:38:35;;;;;;;;;55.50;44.00;;;;;;;;6488588;31;9019;-54
2024/03/08 10:44:48;;;;;;;;;48.25;39.50;;;;;;;;6488731;39;8958;-54
2024/03/08 10:50:52;;;;;;;;;49.00;42.75;;;;;;;;6395772;31;5002409;-51
2024/03/08 10:56:55;;;;;;;;;47.75;41.75;;;;;;;;6487277;47;8904;-53
2024/03/08 11:02:57;;;;;;;;;59.75;46.50;;;;;;;;6489661;31;8892;-55
2024/03/08 11:08:59;;;;;;;;;51.50;45.50;;;;;;;;6488455;39;10109;-53
2024/03/08 11:15:13;;;;;;;;;54.75;44.00;;;;;;;;6491225;39;8912;-52
2024/03/08 11:21:17;;;;;;;;;61.25;50.25;;;;;;;;6492309;31;9031;-54
2024/03/08 11:27:22;;;;;;;;;51.00;42.25;;;;;;;;6489719;46;8861;-55
2024/03/08 11:33:29;;;;;;;;;53.00;41.00;;;;;;;;6491888;46;8844;-53
2024/03/08 11:39:32;;;;;;;;;48.75;39.25;;;;;;;;6491859;39;8907;-53
2024/03/08 11:45:37;;;;;;;;;35.50;30.75;;;;;;;;6490040;31;8942;-52
2024/03/08 11:51:41;;;;;;;;;50.50;40.50;;;;;;;;6491023;39;8942;-51
2024/03/08 11:57:45;;;;;;;;;47.00;40.00;;;;;;;;6490890;46;9040;-54
2024/03/08 12:03:53;;;;;;;;;57.00;45.25;;;;;;;;6489782;46;9024;-58
2024/03/08 12:10:21;;;;;;;;;45.00;40.67;;;;;;;;6489330;39;8859;-55
2024/03/08 12:16:24;;;;;;;;;43.25;38.50;;;;;;;;6491181;39;9459;-56
2024/03/08 12:22:27;;;;;;;;;47.25;39.75;;;;;;;;6491791;31;8848;-57
2024/03/08 12:28:29;;;;;;;;;40.75;36.50;;;;;;;;6490917;39;8848;-55
2024/03/08 12:34:31;;;;;;;;;38.50;37.50;;;;;;;;6490677;39;8860;-56
2024/03/08 12:40:40;;;;;;;;;43.25;40.25;;;;;;;;6489619;39;9547;-51
2024/03/08 12:46:45;;;;;;;;;43.75;37.25;;;;;;;;6491157;39;9021;-52
2024/03/08 12:52:48;;;;;;;;;39.75;33.25;;;;;;;;6490891;39;8944;-55
2024/03/08 12:58:56;;;;;;;;;45.75;40.25;;;;;;;;6490824;39;8920;-54
2024/03/08 13:04:58;;;;;;;;;40.50;37.50;;;;;;;;6490216;39;9523;-52
2024/03/08 13:11:02;;;;;;;;;50.00;40.00;;;;;;;;6489794;31;8938;-55
2024/03/08 13:17:04;;;;;;;;;42.75;37.00;;;;;;;;6491122;39;8884;-53
2024/03/08 13:23:08;;;;;;;;;45.50;39.00;;;;;;;;6491291;31;8864;-56
2024/03/08 13:29:11;;;;;;;;;37.75;35.75;;;;;;;;6490725;39;9566;-51
2024/03/08 13:35:14;;;;;;;;;49.50;40.50;;;;;;;;6491032;39;8958;-55
2024/03/08 13:41:17;;;;;;;;;40.50;37.00;;;;;;;;6490301;39;9662;-54
2024/03/08 13:47:19;;;;;;;;;39.25;36.25;;;;;;;;6489503;31;8857;-54
2024/03/08 13:53:22;;;;;;;;;41.50;36.75;;;;;;;;6490687;46;8949;-53
2024/03/08 13:59:29;;;;;;;;;43.75;37.50;;;;;;;;6489695;39;8897;-54
2024/03/08 14:05:34;;;;;;;;;46.25;40.75;;;;;;;;6491075;31;8952;-53
2024/03/08 14:11:38;;;;;;;;;38.00;35.50;;;;;;;;6490669;39;9001;-53
2024/03/08 14:17:40;;;;;;;;;48.75;39.75;;;;;;;;6486635;31;8996;-56
2024/03/08 14:23:43;;;;;;;;;43.75;38.75;;;;;;;;6486467;46;8951;-56
2024/03/08 14:29:46;;;;;;;;;55.50;43.25;;;;;;;;6487944;31;9010;-52
2024/03/08 14:35:49;;;;;;;;;41.75;38.25;;;;;;;;6489422;47;8892;-54
2024/03/08 14:41:54;;;;;;;;;48.50;38.50;;;;;;;;6489808;39;9601;-57
2024/03/08 14:47:57;;;;;;;;;48.00;39.25;;;;;;;;6491044;46;8914;-55
2024/03/08 14:53:59;;;;;;;;;44.75;38.75;;;;;;;;6491042;46;8879;-53
2024/03/08 15:00:07;;;;;;;;;46.25;40.50;;;;;;;;6492526;31;8904;-53
2024/03/08 15:06:09;;;;;;;;;45.75;36.50;;;;;;;;6493296;39;8979;-54
2024/03/08 15:12:12;;;;;;;;;47.50;38.75;;;;;;;;6492316;39;9539;-57
2024/03/08 15:18:15;;;;;;;;;43.25;35.25;;;;;;;;6492401;39;8958;-53
2024/03/08 15:24:21;;;;;;;;;50.75;39.00;;;;;;;;6491543;39;8872;-56
2024/03/08 15:30:28;;;;;;;;;53.25;41.25;;;;;;;;6492935;31;8903;-53
2024/03/08 15:36:33;;;;;;;;;47.00;41.75;;;;;;;;6491631;31;8908;-57
2024/03/08 15:42:35;;;;;;;;;52.50;44.00;;;;;;;;6492087;39;9054;-54
2024/03/08 15:48:42;;;;;;;;;50.50;40.75;;;;;;;;6492459;39;8837;-53
2024/03/08 15:54:44;;;;;;;;;58.00;47.25;;;;;;;;6492040;39;9599;-56
2024/03/08 16:00:47;;;;;;;;;62.75;48.75;;;;;;;;6491880;39;8908;-51
2024/03/08 16:06:49;;;;;;;;;51.50;41.00;;;;;;;;6491465;31;9021;-56
2024/03/08 16:12:52;;;;;;;;;53.75;44.25;;;;;;;;6491245;46;9033;-56
2024/03/08 16:18:54;;;;;;;;;52.25;42.75;;;;;;;;6491956;39;8877;-56
2024/03/08 16:24:57;;;;;;;;;53.00;42.25;;;;;;;;6490982;39;8877;-53
2024/03/08 16:31:00;;;;;;;;;52.25;44.75;;;;;;;;6460500;31;5002455;-56
2024/03/08 16:37:02;;;;;;;;;59.00;49.75;;;;;;;;6491752;39;8931;-56
2024/03/08 16:43:05;;;;;;;;;63.00;50.00;;;;;;;;6491762;39;8973;-50
2024/03/08 16:49:08;;;;;;;;;65.75;53.00;;;;;;;;6491511;39;8898;-54
2024/03/08 16:55:14;;;;;;;;;61.50;50.50;;;;;;;;6490689;46;8941;-53
2024/03/08 17:01:17;;;;;;;;;60.25;47.25;;;;;;;;6491858;39;8897;-54
2024/03/08 17:07:22;;;;;;;;;61.75;49.50;;;;;;;;6491516;46;8870;-55
2024/03/08 17:13:24;;;;;;;;;60.75;48.00;;;;;;;;6490536;31;8928;-54
2024/03/08 17:19:27;;;;;;;;;63.00;50.75;;;;;;;;6491722;39;8913;-54
2024/03/08 17:25:31;;;;;;;;;66.25;53.75;;;;;;;;6490740;39;8910;-55
2024/03/08 17:31:35;;;;;;;;;64.00;52.25;;;;;;;;6490229;39;8860;-53
2024/03/08 17:37:38;;;;;;;;;71.75;56.50;;;;;;;;6490981;39;9623;-50
2024/03/08 17:43:41;;;;;;;;;67.25;52.75;;;;;;;;6491973;31;8921;-56
2024/03/08 17:49:44;;;;;;;;;68.00;55.75;;;;;;;;6490088;46;8935;-55
2024/03/08 17:55:50;;;;;;;;;73.75;58.75;;;;;;;;6490583;39;8968;-56
2024/03/08 18:01:55;;;;;;;;;66.50;52.75;;;;;;;;6489310;39;8903;-55
2024/03/08 18:08:00;;;;;;;;;66.00;51.50;;;;;;;;6483765;39;8958;-52
2024/03/08 18:14:04;;;;;;;;;66.75;55.00;;;;;;;;6490768;46;8909;-53
2024/03/08 18:20:14;;;;;;;;;71.00;57.00;;;;;;;;6490286;39;8910;-54
2024/03/08 18:26:18;;;;;;;;;61.00;51.75;;;;;;;;6489802;46;8921;-55
2024/03/08 18:32:21;;;;;;;;;66.75;51.50;;;;;;;;6490687;47;8923;-53
2024/03/08 18:38:24;;;;;;;;;68.00;52.25;;;;;;;;6490192;47;8913;-54
2024/03/08 18:44:30;;;;;;;;;65.75;51.00;;;;;;;;6490676;39;9008;-54
2024/03/08 18:50:33;;;;;;;;;65.25;54.00;;;;;;;;6490407;39;9043;-51
2024/03/08 18:56:39;;;;;;;;;73.00;58.25;;;;;;;;6490329;39;9554;-53
2024/03/08 19:02:42;;;;;;;;;63.50;50.00;;;;;;;;6490662;39;8924;-56
2024/03/08 19:08:47;;;;;;;;;61.75;50.75;;;;;;;;6489543;39;9473;-52
2024/03/08 19:14:51;;;;;;;;;66.25;54.50;;;;;;;;6490415;39;8906;-55
2024/03/08 19:20:56;;;;;;;;;70.00;56.75;;;;;;;;6489635;31;9512;-52
2024/03/08 19:27:00;;;;;;;;;63.00;50.25;;;;;;;;6490907;39;8984;-53
2024/03/08 19:33:08;;;;;;;;;73.25;57.00;;;;;;;;6490169;46;8883;-57
2024/03/08 19:39:10;;;;;;;;;68.00;53.75;;;;;;;;6492336;39;8917;-53
2024/03/08 19:45:15;;;;;;;;;68.75;57.50;;;;;;;;6491898;46;8920;-51
2024/03/08 19:51:18;;;;;;;;;66.25;53.75;;;;;;;;6491916;46;8847;-54
2024/03/08 19:57:20;;;;;;;;;71.50;57.25;;;;;;;;6491730;46;8912;-53
2024/03/08 20:03:23;;;;;;;;;71.75;56.50;;;;;;;;6492662;39;8984;-54
2024/03/08 20:09:26;;;;;;;;;73.00;58.75;;;;;;;;6491156;46;9014;-54
2024/03/08 20:15:33;;;;;;;;;75.25;59.50;;;;;;;;6492392;39;9572;-55
2024/03/08 20:21:35;;;;;;;;;75.75;59.25;;;;;;;;6490703;46;8928;-53
2024/03/08 20:27:44;;;;;;;;;71.25;57.75;;;;;;;;6491848;39;8906;-53
2024/03/08 20:33:46;;;;;;;;;72.00;58.50;;;;;;;;6492058;39;8853;-53
2024/03/08 20:39:48;;;;;;;;;75.25;58.25;;;;;;;;6491369;39;8901;-51
2024/03/08 20:45:50;;;;;;;;;74.25;59.75;;;;;;;;6492025;39;8882;-53
2024/03/08 20:51:55;;;;;;;;;72.00;57.50;;;;;;;;6491049;46;8893;-54
2024/03/08 20:57:58;;;;;;;;;80.75;60.75;;;;;;;;6491398;46;8917;-56
2024/03/08 21:04:00;;;;;;;;;75.50;60.50;;;;;;;;6491270;39;8910;-51
2024/03/08 21:10:02;;;;;;;;;81.25;63.00;;;;;;;;6491068;46;8892;-54
2024/03/08 21:16:09;;;;;;;;;77.50;59.50;;;;;;;;6492674;31;8971;-55
2024/03/08 21:22:11;;;;;;;;;65.50;53.50;;;;;;;;6491707;31;8986;-55
2024/03/08 21:28:15;;;;;;;;;79.25;61.25;;;;;;;;6491511;39;9660;-52
2024/03/08 21:34:17;;;;;;;;;73.75;57.75;;;;;;;;6492054;39;8901;-53
2024/03/08 21:40:25;;;;;;;;;73.75;59.50;;;;;;;;6491422;39;9412;-53
2024/03/08 21:46:29;;;;;;;;;73.50;59.50;;;;;;;;6491277;46;8884;-53
2024/03/08 21:52:31;;;;;;;;;70.75;57.75;;;;;;;;6490890;31;8881;-53
2024/03/08 21:58:34;;;;;;;;;75.25;56.25;;;;;;;;6490603;31;9052;-52
2024/03/08 22:04:36;;;;;;;;;74.00;57.33;;;;;;;;6490789;39;8917;-51
2024/03/08 22:10:41;;;;;;;;;72.75;56.50;;;;;;;;6490418;39;8838;-56
2024/03/08 22:16:45;;;;;;;;;71.00;58.50;;;;;;;;6491461;39;9585;-53
2024/03/08 22:22:49;;;;;;;;;77.25;59.00;;;;;;;;6490619;32;8992;-49
2024/03/08 22:28:52;;;;;;;;;76.00;59.75;;;;;;;;6490902;31;8861;-53
2024/03/08 22:34:56;;;;;;;;;75.75;60.00;;;;;;;;6490186;39;8879;-52
2024/03/08 22:40:59;;;;;;;;;62.25;54.00;;;;;;;;6490557;39;8917;-50
2024/03/08 22:47:03;;;;;;;;;70.50;55.50;;;;;;;;6491428;31;8976;-49
2024/03/08 22:53:07;;;;;;;;;78.67;61.00;;;;;;;;6490157;39;9042;-49
2024/03/08 22:59:11;;;;;;;;;58.25;49.25;;;;;;;;6490306;47;8869;-54
2024/03/08 23:05:15;;;;;;;;;63.75;46.25;;;;;;;;6490419;39;8878;-52
2024/03/08 23:11:18;;;;;;;;;69.25;52.00;;;;;;;;6491110;46;9122;-51
2024/03/08 23:17:20;;;;;;;;;73.33;55.67;;;;;;;;6492241;39;8900;-54
2024/03/08 23:23:23;;;;;;;;;70.75;57.50;;;;;;;;6492183;39;8932;-51
2024/03/08 23:29:25;;;;;;;;;70.75;57.00;;;;;;;;6491781;39;8887;-52
2024/03/08 23:35:28;;;;;;;;;73.25;61.00;;;;;;;;6492307;31;8867;-51
2024/03/08 23:41:30;;;;;;;;;71.00;57.50;;;;;;;;6492071;39;8947;-53
2024/03/08 23:47:32;;;;;;;;;77.75;60.25;;;;;;;;6492915;39;8921;-53
2024/03/08 23:53:35;;;;;;;;;73.50;57.50;;;;;;;;6491713;39;8977;-51
2024/03/08 23:59:39;;;;;;;;;70.67;56.00;;;;;;;;6491679;46;8897;-51
